Terminal Aerodrome Forecast
Issued by NWS Midland/Odessa, TX

Home | Current Version | Previous Version | Text Only | Print | Product List | Glossary On
Versions: 1 2 3 4 5 6 7 8 9 10 11 12 13 14 15 16 17 18 19 20 21 22 23
000
FTUS44 KMAF 310054 AAB
TAFMAF
TAF AMD
KMAF 310054Z 3101/3124 18019G27KT P6SM VCTS SCT060CB BKN250
      TEMPO 3101/3102 09022G30KT
     FM310200 15011KT P6SM SCT060 BKN250
     FM311400 17011KT P6SM OVC025=

USA.gov is the U.S. government's official web portal to all federal, state and local government web resources and services.